createdAt,value
2023-05-11T00:01:47.572Z,40.88
2023-05-11T00:04:14.299Z,40.85
2023-05-11T00:06:43.334Z,40.81
2023-05-11T00:09:11.298Z,40.22
2023-05-11T00:11:38.016Z,40.58
2023-05-11T00:14:04.653Z,40.98
2023-05-11T00:16:31.251Z,41.18
2023-05-11T00:19:00.748Z,41.06
2023-05-11T00:21:30.406Z,40.87
2023-05-11T00:23:57.379Z,40.88
2023-05-11T00:26:24.085Z,40.51
2023-05-11T00:28:53.598Z,40.79
2023-05-11T00:31:23.120Z,41.58
2023-05-11T00:33:49.711Z,41.32
2023-05-11T00:36:16.816Z,41.35
2023-05-11T00:38:45.571Z,41.56
2023-05-11T00:41:12.317Z,41.19
2023-05-11T00:43:41.350Z,41.32
2023-05-11T00:46:10.903Z,41.46
2023-05-11T00:48:39.609Z,41.27
2023-05-11T00:51:09.097Z,41.55
2023-05-11T00:53:35.747Z,41.38
2023-05-11T00:56:04.982Z,41.68
2023-05-11T00:58:33.943Z,41.43
2023-05-11T01:01:05.358Z,41.46
2023-05-11T01:03:34.929Z,41.66
2023-05-11T01:06:07.206Z,41.28
2023-05-11T01:08:52.642Z,41.64
2023-05-11T01:11:21.672Z,41.68
2023-05-11T01:13:56.009Z,41.65
2023-05-11T01:16:25.635Z,41.84
2023-05-11T01:18:57.389Z,42.14
2023-05-11T01:21:24.250Z,42.20
2023-05-11T01:23:50.853Z,42.45
2023-05-11T01:26:36.360Z,43.10
2023-05-11T01:29:21.945Z,42.87
2023-05-11T01:31:51.448Z,42.75
2023-05-11T01:34:22.190Z,43.08
2023-05-11T01:36:59.489Z,43.50
2023-05-11T01:39:30.828Z,43.71
2023-05-11T01:41:57.428Z,43.82
2023-05-11T01:44:24.057Z,44.01
2023-05-11T01:46:53.163Z,44.83
2023-05-11T01:49:20.217Z,44.72
2023-05-11T01:51:49.530Z,45.13
2023-05-11T01:54:18.395Z,45.00
2023-05-11T01:56:47.356Z,45.19
2023-05-11T01:59:17.705Z,45.59
2023-05-11T02:01:44.375Z,45.88
2023-05-11T02:04:11.324Z,45.76
2023-05-11T02:06:40.286Z,45.60
2023-05-11T02:09:08.033Z,45.44
2023-05-11T02:11:37.205Z,45.45
2023-05-11T02:14:04.202Z,45.11
2023-05-11T02:16:35.744Z,45.86
2023-05-11T02:19:03.318Z,46.00
2023-05-11T02:21:29.881Z,45.27
2023-05-11T02:23:58.963Z,45.16
2023-05-11T02:26:25.742Z,44.81
2023-05-11T02:28:52.412Z,44.91
2023-05-11T02:31:28.666Z,44.32
2023-05-11T02:34:00.667Z,45.12
2023-05-11T02:36:29.621Z,44.64
2023-05-11T02:39:01.100Z,45.04
2023-05-11T02:41:28.308Z,45.18
2023-05-11T02:43:58.852Z,45.16
2023-05-11T02:46:28.688Z,45.23
2023-05-11T02:48:56.761Z,44.81
2023-05-11T02:51:26.889Z,44.96
2023-05-11T02:53:54.082Z,45.14
2023-05-11T02:56:22.022Z,45.39
2023-05-11T02:58:51.060Z,45.28
2023-05-11T03:01:22.487Z,45.42
2023-05-11T03:03:54.942Z,45.85
2023-05-11T03:06:23.211Z,45.89
2023-05-11T03:08:52.256Z,46.18
2023-05-11T03:11:21.391Z,46.55
2023-05-11T03:13:48.359Z,46.42
2023-05-11T03:16:21.013Z,46.71
2023-05-11T03:18:49.321Z,47.02
2023-05-11T03:21:21.753Z,47.05
2023-05-11T03:23:48.743Z,47.61
2023-05-11T03:26:16.814Z,47.16
2023-05-11T03:28:49.380Z,47.18
2023-05-11T03:31:16.041Z,47.04
2023-05-11T03:33:47.468Z,47.29
2023-05-11T03:36:16.916Z,46.52
2023-05-11T03:38:44.695Z,46.39
2023-05-11T03:41:15.053Z,46.41
2023-05-11T03:43:41.979Z,46.49
2023-05-11T03:46:12.029Z,46.70
2023-05-11T03:48:41.564Z,46.23
2023-05-11T03:51:11.468Z,46.11
2023-05-11T03:53:40.735Z,46.16
2023-05-11T03:56:07.644Z,46.33
2023-05-11T03:58:36.678Z,46.09
2023-05-11T04:01:04.717Z,46.19
2023-05-11T04:03:31.719Z,46.42
2023-05-11T04:05:58.564Z,46.35
2023-05-11T04:08:27.893Z,46.49
2023-05-11T04:10:57.161Z,46.80
2023-05-11T04:13:23.749Z,46.94
2023-05-11T04:15:52.281Z,46.99
2023-05-11T04:18:20.423Z,47.15
2023-05-11T04:20:49.449Z,47.51
2023-05-11T04:23:16.106Z,47.82
2023-05-11T04:25:42.825Z,48.02
2023-05-11T04:28:09.425Z,47.73
2023-05-11T04:30:38.898Z,47.59
2023-05-11T04:33:06.131Z,47.54
2023-05-11T04:35:33.025Z,48.06
2023-05-11T04:37:59.956Z,48.02
2023-05-11T04:40:29.589Z,48.14
2023-05-11T04:42:56.694Z,48.78
2023-05-11T04:45:23.502Z,48.54
2023-05-11T04:47:53.075Z,48.53
2023-05-11T04:50:22.522Z,48.28
2023-05-11T04:52:55.416Z,48.09
2023-05-11T04:55:24.831Z,47.39
2023-05-11T04:57:53.614Z,47.09
2023-05-11T05:00:20.804Z,46.70
2023-05-11T05:02:48.013Z,46.63
2023-05-11T05:05:14.635Z,46.36
2023-05-11T05:07:42.579Z,46.67
2023-05-11T05:10:09.764Z,47.09
2023-05-11T05:12:37.813Z,46.91
2023-05-11T05:15:04.950Z,46.36
2023-05-11T05:17:31.950Z,46.62
2023-05-11T05:19:59.410Z,45.98
2023-05-11T05:22:26.647Z,45.02
2023-05-11T05:24:53.366Z,44.50
2023-05-11T05:27:20.316Z,44.02
2023-05-11T05:29:47.005Z,43.95
2023-05-11T05:32:16.230Z,43.80
2023-05-11T05:34:46.968Z,43.33
2023-05-11T05:37:14.475Z,43.73
2023-05-11T05:39:41.229Z,43.50
2023-05-11T05:42:08.987Z,43.89
2023-05-11T05:44:35.850Z,43.92
2023-05-11T05:47:02.788Z,43.85
2023-05-11T05:49:32.553Z,43.96
2023-05-11T05:51:59.595Z,43.99
2023-05-11T05:54:26.814Z,43.53
2023-05-11T05:56:57.006Z,43.83
2023-05-11T05:59:24.442Z,43.17
2023-05-11T06:01:55.343Z,42.97
2023-05-11T06:04:23.682Z,42.56
2023-05-11T06:06:50.358Z,42.88
2023-05-11T06:09:20.526Z,43.14
2023-05-11T06:11:48.516Z,42.66
2023-05-11T06:14:17.661Z,42.50
2023-05-11T06:16:47.431Z,42.14
2023-05-11T06:19:14.119Z,42.28
2023-05-11T06:21:42.966Z,42.83
2023-05-11T06:24:09.649Z,42.72
2023-05-11T06:26:40.985Z,42.99
2023-05-11T06:29:08.075Z,42.58
2023-05-11T06:31:38.104Z,42.41
2023-05-11T06:34:05.397Z,42.35
2023-05-11T06:36:33.462Z,41.78
2023-05-11T06:39:00.280Z,41.90
2023-05-11T06:41:29.282Z,42.09
2023-05-11T06:43:58.978Z,41.69
2023-05-11T06:46:28.152Z,41.60
2023-05-11T06:48:54.849Z,41.41
2023-05-11T06:51:22.069Z,41.75
2023-05-11T06:53:49.178Z,42.21
2023-05-11T06:56:15.866Z,42.07
2023-05-11T06:58:42.803Z,42.52
2023-05-11T07:01:09.591Z,41.51
2023-05-11T07:03:36.640Z,41.44
2023-05-11T07:06:03.372Z,42.17
2023-05-11T07:08:30.210Z,42.27
2023-05-11T07:10:59.432Z,41.82
2023-05-11T07:13:26.065Z,41.53
2023-05-11T07:15:57.378Z,41.11
2023-05-11T07:18:24.523Z,40.88
2023-05-11T07:20:53.755Z,41.47
2023-05-11T07:23:20.460Z,41.34
2023-05-11T07:25:47.207Z,41.19
2023-05-11T07:28:16.640Z,41.19
2023-05-11T07:30:43.295Z,40.25
2023-05-11T07:33:12.386Z,40.77
2023-05-11T07:35:44.166Z,40.88
2023-05-11T07:38:11.942Z,40.75
2023-05-11T07:40:38.553Z,39.93
2023-05-11T07:43:05.163Z,39.83
2023-05-11T07:45:34.182Z,39.88
2023-05-11T07:48:04.058Z,39.46
2023-05-11T07:50:33.193Z,39.89
2023-05-11T07:52:59.787Z,39.16
2023-05-11T07:55:30.646Z,38.42
2023-05-11T07:58:00.047Z,39.01
2023-05-11T08:00:29.553Z,39.26
2023-05-11T08:02:57.045Z,39.61
2023-05-11T08:05:28.396Z,39.19
2023-05-11T08:07:55.073Z,38.64
2023-05-11T08:10:24.179Z,37.68
2023-05-11T08:12:50.838Z,38.24
2023-05-11T08:15:20.029Z,38.31
2023-05-11T08:17:49.601Z,37.79
2023-05-11T08:20:20.856Z,37.64
2023-05-11T08:22:50.014Z,37.95
2023-05-11T08:25:19.236Z,37.48
2023-05-11T08:27:46.032Z,36.92
2023-05-11T08:30:15.126Z,37.40
2023-05-11T08:35:11.556Z,36.95
2023-05-11T08:37:38.198Z,36.79
2023-05-11T08:40:08.208Z,36.35
2023-05-11T08:42:37.011Z,36.46
2023-05-11T08:45:04.194Z,36.40
2023-05-11T08:47:30.825Z,36.01
2023-05-11T08:49:58.466Z,35.36
2023-05-11T08:52:25.421Z,35.19
2023-05-11T08:54:54.385Z,34.72
2023-05-11T08:57:26.054Z,34.77
2023-05-11T08:59:55.604Z,34.27
2023-05-11T09:02:22.233Z,34.53
2023-05-11T09:04:51.287Z,34.45
2023-05-11T09:07:18.210Z,35.04
2023-05-11T09:09:45.725Z,35.02
2023-05-11T09:12:12.787Z,34.76
2023-05-11T09:14:42.015Z,34.56
2023-05-11T09:17:12.929Z,35.09
2023-05-11T09:19:57.503Z,35.08
2023-05-11T09:22:25.171Z,33.83
2023-05-11T09:24:56.945Z,33.52
2023-05-11T09:27:29.378Z,34.00
2023-05-11T09:29:57.756Z,33.54
2023-05-11T09:32:27.111Z,33.70
2023-05-11T09:34:53.766Z,33.22
2023-05-11T09:37:22.730Z,33.35
2023-05-11T09:42:20.062Z,32.54
2023-05-11T09:44:49.307Z,32.35
2023-05-11T09:47:19.030Z,32.47
2023-05-11T09:52:16.777Z,32.09
2023-05-11T09:54:46.785Z,32.58
2023-05-11T09:57:27.179Z,32.10
2023-05-11T09:59:59.105Z,31.57
2023-05-11T10:02:30.693Z,31.71
2023-05-11T10:04:58.596Z,31.59
2023-05-11T10:07:27.621Z,31.51
2023-05-11T10:09:54.817Z,30.87
2023-05-11T10:12:25.720Z,30.59
2023-05-11T10:14:58.793Z,30.26
2023-05-11T10:17:32.130Z,30.29
2023-05-11T10:20:04.192Z,29.92
2023-05-11T10:22:34.272Z,29.93
2023-05-11T10:25:06.029Z,29.83
2023-05-11T10:27:35.152Z,29.27
2023-05-11T10:30:04.232Z,29.61
2023-05-11T10:32:31.263Z,28.53
2023-05-11T10:35:00.331Z,28.06
2023-05-11T10:37:27.219Z,28.05
2023-05-11T10:39:57.081Z,27.44
2023-05-11T10:42:26.945Z,27.14
2023-05-11T10:44:53.615Z,27.71
2023-05-11T10:47:29.610Z,27.82
2023-05-11T10:50:15.245Z,27.84
2023-05-11T10:52:59.166Z,26.87
2023-05-11T10:55:32.093Z,26.27
2023-05-11T10:58:13.458Z,26.15
2023-05-11T11:00:54.805Z,27.10
2023-05-11T11:03:21.506Z,26.89
2023-05-11T11:05:48.343Z,26.59
2023-05-11T11:08:19.989Z,26.10
2023-05-11T11:10:51.586Z,26.37
2023-05-11T11:13:20.132Z,26.64
2023-05-11T11:15:53.369Z,26.78
2023-05-11T11:18:23.857Z,26.13
2023-05-11T11:20:52.350Z,26.02
2023-05-11T11:23:40.458Z,25.67
2023-05-11T11:26:07.971Z,25.57
2023-05-11T11:28:53.552Z,26.37
2023-05-11T11:31:27.491Z,26.42
2023-05-11T11:33:58.901Z,26.16
2023-05-11T11:36:44.478Z,25.84
2023-05-11T11:39:13.609Z,25.62
2023-05-11T11:41:40.444Z,24.48
2023-05-11T11:44:20.150Z,24.13
2023-05-11T11:46:46.845Z,24.17
2023-05-11T11:49:13.613Z,23.68
2023-05-11T11:51:42.899Z,23.95
2023-05-11T11:54:12.536Z,23.73
2023-05-11T11:56:41.877Z,23.67
2023-05-11T11:59:14.007Z,23.50
2023-05-11T12:01:41.340Z,24.34
2023-05-11T12:04:34.470Z,24.50
2023-05-11T12:07:01.424Z,23.51
2023-05-11T12:09:30.748Z,24.02
2023-05-11T12:11:59.591Z,23.82
2023-05-11T12:14:26.337Z,24.53
2023-05-11T12:17:05.205Z,25.37
2023-05-11T12:19:36.807Z,25.66
2023-05-11T12:22:06.393Z,24.76
2023-05-11T12:24:35.494Z,24.21
2023-05-11T12:27:07.669Z,24.61
2023-05-11T12:29:40.934Z,24.38
2023-05-11T12:32:11.563Z,24.72
2023-05-11T12:34:38.317Z,24.17
2023-05-11T12:37:06.089Z,23.63
2023-05-11T12:39:35.601Z,23.32
2023-05-11T12:42:02.175Z,22.12
2023-05-11T12:44:28.858Z,21.07
2023-05-11T12:46:57.894Z,21.42
2023-05-11T12:49:28.365Z,21.48
2023-05-11T12:51:54.933Z,20.71
2023-05-11T12:54:40.911Z,20.35
2023-05-11T12:57:08.582Z,20.29
2023-05-11T12:59:37.472Z,20.77
2023-05-11T13:02:10.265Z,20.23
2023-05-11T13:04:39.682Z,20.74
2023-05-11T13:07:08.690Z,21.10
2023-05-11T13:09:41.548Z,20.32
2023-05-11T13:12:08.284Z,19.25
2023-05-11T13:14:35.284Z,19.17
2023-05-11T13:17:01.840Z,17.81
2023-05-11T13:19:29.370Z,17.47
2023-05-11T13:21:56.363Z,16.93
2023-05-11T13:24:25.886Z,16.36
2023-05-11T13:26:55.993Z,15.37
2023-05-11T13:29:25.395Z,15.36
2023-05-11T13:31:52.569Z,15.11
2023-05-11T13:34:19.826Z,14.98
2023-05-11T13:36:49.150Z,15.39
2023-05-11T13:39:15.922Z,15.76
2023-05-11T13:41:42.672Z,15.41
2023-05-11T13:44:09.403Z,15.72
2023-05-11T13:46:36.204Z,14.62
2023-05-11T13:49:04.146Z,15.07
2023-05-11T13:51:31.159Z,15.61
2023-05-11T13:53:59.367Z,16.31
2023-05-11T13:56:28.294Z,17.51
2023-05-11T13:58:54.957Z,17.08
2023-05-11T14:01:22.150Z,18.51
2023-05-11T14:03:52.458Z,18.65
2023-05-11T14:06:20.890Z,19.08
2023-05-11T14:08:50.075Z,19.29
2023-05-11T14:11:18.990Z,19.52
2023-05-11T14:13:48.428Z,19.73
2023-05-11T14:16:15.075Z,20.21
2023-05-11T14:18:44.494Z,20.60
2023-05-11T14:21:16.073Z,20.79
2023-05-11T14:23:57.659Z,21.06
2023-05-11T14:26:34.082Z,21.75
2023-05-11T14:29:03.356Z,21.78
2023-05-11T14:31:30.495Z,21.85
2023-05-11T14:33:59.657Z,21.51
2023-05-11T14:36:28.438Z,21.47
2023-05-11T14:38:55.229Z,21.95
2023-05-11T14:41:21.832Z,21.98
2023-05-11T14:43:49.389Z,22.06
2023-05-11T14:46:18.438Z,22.13
2023-05-11T14:48:47.612Z,21.76
2023-05-11T14:51:16.551Z,22.63
2023-05-11T14:53:43.205Z,22.85
2023-05-11T14:56:09.765Z,22.64
2023-05-11T14:58:36.401Z,22.64
2023-05-11T15:01:04.091Z,22.37
2023-05-11T15:03:33.139Z,22.83
2023-05-11T15:05:59.971Z,23.43
2023-05-11T15:08:30.420Z,23.79
2023-05-11T15:11:00.224Z,24.18
2023-05-11T15:13:27.354Z,24.47
2023-05-11T15:15:57.165Z,24.67
2023-05-11T15:18:23.901Z,24.46
2023-05-11T15:20:50.627Z,24.72
2023-05-11T15:23:19.630Z,24.97
2023-05-11T15:25:46.240Z,24.91
2023-05-11T15:28:13.395Z,24.89
2023-05-11T15:30:41.614Z,25.19
2023-05-11T15:33:11.146Z,25.10
2023-05-11T15:35:38.045Z,25.02
2023-05-11T15:38:04.903Z,25.12
2023-05-11T15:40:33.873Z,25.47
2023-05-11T15:43:03.245Z,25.75
2023-05-11T15:45:32.536Z,25.95
2023-05-11T15:47:59.402Z,26.10
2023-05-11T15:50:26.282Z,26.21
2023-05-11T15:52:52.942Z,26.35
2023-05-11T15:55:22.725Z,26.40
2023-05-11T15:57:51.789Z,26.75
2023-05-11T16:00:18.940Z,26.94
2023-05-11T16:02:46.128Z,26.98
2023-05-11T16:05:15.169Z,27.25
2023-05-11T16:07:41.927Z,27.39
2023-05-11T16:10:09.076Z,27.48
2023-05-11T16:12:38.297Z,27.78
2023-05-11T16:15:05.381Z,27.64
2023-05-11T16:17:37.034Z,28.09
2023-05-11T16:20:04.626Z,28.22
2023-05-11T16:22:31.442Z,28.59
2023-05-11T16:24:58.045Z,28.36
2023-05-11T16:27:24.760Z,28.71
2023-05-11T16:29:52.367Z,28.63
2023-05-11T16:32:20.309Z,28.73
2023-05-11T16:34:47.344Z,28.64
2023-05-11T16:37:13.939Z,28.64
2023-05-11T16:39:40.989Z,28.86
2023-05-11T16:42:10.659Z,28.90
2023-05-11T16:44:37.354Z,29.12
2023-05-11T16:47:04.208Z,28.85
2023-05-11T16:49:35.461Z,29.16
2023-05-11T16:52:05.283Z,29.41
2023-05-11T16:54:34.293Z,29.76
2023-05-11T16:57:04.006Z,30.16
2023-05-11T16:59:33.055Z,30.61
2023-05-11T17:01:59.842Z,30.60
2023-05-11T17:04:29.251Z,30.78
2023-05-11T17:06:58.220Z,30.67
2023-05-11T17:09:24.973Z,30.78
2023-05-11T17:11:52.380Z,31.20
2023-05-11T17:14:19.053Z,33.24
2023-05-11T17:16:48.731Z,33.89
2023-05-11T17:19:15.877Z,35.45
2023-05-11T17:21:42.634Z,35.09
2023-05-11T17:24:09.492Z,36.76
2023-05-11T17:26:47.200Z,37.15
2023-05-11T17:29:15.923Z,37.13
2023-05-11T17:31:42.876Z,37.80
2023-05-11T17:34:09.869Z,38.33
2023-05-11T17:36:36.730Z,38.58
2023-05-11T17:39:05.720Z,38.57
2023-05-11T17:41:32.483Z,39.46
2023-05-11T17:44:01.715Z,38.29
2023-05-11T17:46:30.891Z,38.77
2023-05-11T17:48:58.213Z,39.11
2023-05-11T17:51:24.807Z,38.07
2023-05-11T17:53:51.386Z,38.64
2023-05-11T17:56:18.568Z,38.75
2023-05-11T17:58:48.669Z,38.06
2023-05-11T18:01:15.398Z,38.70
2023-05-11T18:03:42.421Z,38.64
2023-05-11T18:06:09.386Z,38.70
2023-05-11T18:08:38.981Z,38.34
2023-05-11T18:11:07.415Z,38.37
2023-05-11T18:13:35.256Z,38.50
2023-05-11T18:16:01.939Z,38.92
2023-05-11T18:18:28.793Z,38.48
2023-05-11T18:20:55.842Z,39.24
2023-05-11T18:23:22.784Z,39.50
2023-05-11T18:25:51.435Z,40.07
2023-05-11T18:28:18.054Z,40.35
2023-05-11T18:30:47.835Z,40.24
2023-05-11T18:33:18.180Z,40.33
2023-05-11T18:35:47.494Z,40.75
2023-05-11T18:38:14.158Z,40.98
2023-05-11T18:40:43.672Z,41.29
2023-05-11T18:43:10.414Z,41.70
2023-05-11T18:45:37.033Z,42.28
2023-05-11T18:48:03.949Z,42.04
2023-05-11T18:50:31.307Z,42.61
2023-05-11T18:52:57.986Z,43.05
2023-05-11T18:55:24.852Z,42.68
2023-05-11T18:57:54.856Z,43.28
2023-05-11T19:00:21.695Z,44.76
2023-05-11T19:02:48.683Z,45.02
2023-05-11T19:05:17.649Z,45.55
2023-05-11T19:07:44.362Z,46.17
2023-05-11T19:10:16.696Z,47.18
2023-05-11T19:12:43.339Z,47.47
2023-05-11T19:15:10.023Z,48.20
2023-05-11T19:17:37.029Z,48.74
2023-05-11T19:20:04.044Z,48.45
2023-05-11T19:22:30.656Z,48.92
2023-05-11T19:24:57.624Z,49.96
2023-05-11T19:27:26.678Z,50.06
2023-05-11T19:29:56.610Z,50.21
2023-05-11T19:32:23.530Z,49.17
2023-05-11T19:34:50.284Z,49.33
2023-05-11T19:37:19.794Z,51.42
2023-05-11T19:39:49.441Z,52.42
2023-05-11T19:42:17.969Z,52.28
2023-05-11T19:44:46.540Z,52.63
2023-05-11T19:47:13.352Z,53.41
2023-05-11T19:49:40.033Z,53.21
2023-05-11T19:52:09.113Z,53.69
2023-05-11T19:54:38.164Z,54.58
2023-05-11T19:57:07.232Z,54.17
2023-05-11T19:59:33.905Z,54.52
2023-05-11T20:02:03.657Z,55.46
2023-05-11T20:04:30.971Z,55.53
2023-05-11T20:06:57.874Z,55.82
2023-05-11T20:09:27.403Z,56.89
2023-05-11T20:11:54.243Z,57.72
2023-05-11T20:14:23.329Z,57.19
2023-05-11T20:16:54.665Z,58.19
2023-05-11T20:19:23.813Z,57.22
2023-05-11T20:21:52.765Z,58.19
2023-05-11T20:24:19.342Z,58.94
2023-05-11T20:26:48.330Z,57.86
2023-05-11T20:29:17.331Z,58.48
2023-05-11T20:31:46.785Z,58.07
2023-05-11T20:34:14.080Z,57.78
2023-05-11T20:36:42.891Z,57.45
2023-05-11T20:39:14.544Z,59.17
2023-05-11T20:41:41.376Z,58.24
2023-05-11T20:44:14.074Z,57.31
2023-05-11T20:46:41.369Z,57.38
2023-05-11T20:49:08.185Z,58.38
2023-05-11T20:51:35.285Z,58.29
2023-05-11T20:54:04.788Z,58.76
2023-05-11T20:56:31.500Z,59.58
2023-05-11T20:58:58.424Z,59.70
2023-05-11T21:01:25.443Z,60.49
2023-05-11T21:03:52.535Z,61.11
2023-05-11T21:06:19.142Z,60.76
2023-05-11T21:08:45.803Z,60.86
2023-05-11T21:11:12.462Z,61.78
2023-05-11T21:13:41.692Z,61.02
2023-05-11T21:16:10.733Z,60.39
2023-05-11T21:18:39.523Z,60.25
2023-05-11T21:21:06.272Z,60.42
2023-05-11T21:23:32.929Z,60.80
2023-05-11T21:26:01.921Z,61.11
2023-05-11T21:28:29.313Z,61.25
2023-05-11T21:30:58.409Z,60.86
2023-05-11T21:33:25.073Z,61.67
2023-05-11T21:35:54.675Z,61.91
2023-05-11T21:38:21.289Z,62.34
2023-05-11T21:40:54.808Z,62.19
2023-05-11T21:43:21.506Z,62.49
2023-05-11T21:45:50.653Z,62.49
2023-05-11T21:48:17.733Z,61.88
2023-05-11T21:50:44.452Z,62.07
2023-05-11T21:53:11.064Z,62.11
2023-05-11T21:55:37.621Z,62.43
2023-05-11T21:58:04.571Z,62.31
2023-05-11T22:00:32.799Z,62.75
2023-05-11T22:03:02.736Z,63.02
2023-05-11T22:05:31.638Z,62.34
2023-05-11T22:08:13.286Z,62.00
2023-05-11T22:10:41.853Z,61.32
2023-05-11T22:13:08.765Z,61.30
2023-05-11T22:15:35.776Z,60.67
2023-05-11T22:18:02.423Z,60.38
2023-05-11T22:20:29.180Z,60.39
2023-05-11T22:22:57.830Z,59.94
2023-05-11T22:25:26.833Z,59.89
2023-05-11T22:27:55.854Z,59.95
2023-05-11T22:30:22.857Z,60.06
2023-05-11T22:32:49.773Z,60.12
2023-05-11T22:35:16.923Z,59.99
2023-05-11T22:37:43.744Z,60.06
2023-05-11T22:40:10.665Z,59.81
2023-05-11T22:42:41.907Z,59.77
2023-05-11T22:45:11.274Z,60.14
2023-05-11T22:47:40.487Z,60.94
2023-05-11T22:50:11.620Z,60.66
2023-05-11T22:52:38.499Z,61.21
2023-05-11T22:55:05.506Z,62.07
2023-05-11T22:57:32.273Z,61.96
2023-05-11T23:00:01.474Z,62.02
2023-05-11T23:02:29.740Z,61.53
2023-05-11T23:05:01.300Z,61.91
2023-05-11T23:07:30.427Z,61.69
2023-05-11T23:09:57.407Z,61.48
2023-05-11T23:12:23.969Z,61.07
2023-05-11T23:14:51.130Z,60.97
2023-05-11T23:17:20.863Z,60.74
2023-05-11T23:19:48.042Z,60.77
2023-05-11T23:22:17.536Z,60.78
2023-05-11T23:24:44.530Z,60.36
2023-05-11T23:27:13.909Z,60.50
2023-05-11T23:29:44.863Z,60.10
2023-05-11T23:32:13.904Z,60.24
2023-05-11T23:34:41.333Z,60.50
2023-05-11T23:37:08.684Z,60.88
2023-05-11T23:39:35.641Z,61.09
2023-05-11T23:42:02.368Z,60.86
2023-05-11T23:44:32.115Z,61.21
2023-05-11T23:46:58.781Z,61.46
2023-05-11T23:49:25.999Z,61.39
2023-05-11T23:51:54.979Z,61.49
2023-05-11T23:54:21.541Z,61.02
2023-05-11T23:56:50.590Z,61.05
2023-05-11T23:59:21.722Z,61.18
